createdAt,value
2017-11-04T00:00:57.882Z,95.00
2017-11-04T00:03:25.724Z,95.00
2017-11-04T00:05:53.454Z,94.90
2017-11-04T00:08:21.953Z,94.80
2017-11-04T00:10:49.677Z,94.90
2017-11-04T00:13:18.239Z,94.90
2017-11-04T00:15:46.113Z,95.00
2017-11-04T00:18:13.845Z,95.00
2017-11-04T00:20:41.554Z,94.80
2017-11-04T00:23:09.269Z,94.80
2017-11-04T00:25:37.039Z,94.80
2017-11-04T00:28:04.831Z,94.70
2017-11-04T00:30:32.696Z,94.90
2017-11-04T00:33:00.568Z,95.30
2017-11-04T00:35:28.330Z,95.10
2017-11-04T00:37:56.055Z,95.10
2017-11-04T00:40:23.782Z,95.10
2017-11-04T00:42:51.506Z,95.20
2017-11-04T00:45:19.244Z,95.10
2017-11-04T00:47:46.965Z,95.30
2017-11-04T00:50:15.635Z,94.80
2017-11-04T00:52:43.502Z,94.80
2017-11-04T00:55:11.370Z,95.00
2017-11-04T00:57:39.237Z,95.10
2017-11-04T01:00:07.105Z,95.20
2017-11-04T01:02:34.818Z,95.30
2017-11-04T01:05:02.542Z,95.20
2017-11-04T01:07:30.273Z,95.10
2017-11-04T01:09:58.167Z,95.30
2017-11-04T01:12:26.034Z,95.20
2017-11-04T01:14:53.902Z,95.30
2017-11-04T01:17:21.769Z,95.20
2017-11-04T01:19:49.507Z,95.10
2017-11-04T01:22:17.402Z,95.00
2017-11-04T01:24:45.268Z,94.90
2017-11-04T01:27:12.990Z,95.00
2017-11-04T01:29:40.738Z,95.30
2017-11-04T01:32:09.260Z,95.60
2017-11-04T01:34:37.144Z,95.60
2017-11-04T01:37:05.013Z,95.60
2017-11-04T01:39:32.755Z,95.40
2017-11-04T01:42:00.514Z,95.30
2017-11-04T01:44:28.254Z,94.80
2017-11-04T01:46:56.755Z,94.90
2017-11-04T01:49:24.515Z,94.90
2017-11-04T01:51:52.246Z,95.30
2017-11-04T01:54:20.232Z,95.30
2017-11-04T01:56:48.738Z,95.20
2017-11-04T01:59:16.479Z,95.20
2017-11-04T02:01:44.993Z,95.60
2017-11-04T02:04:12.883Z,95.60
2017-11-04T02:06:40.852Z,95.60
2017-11-04T02:09:08.726Z,95.50
2017-11-04T02:11:36.588Z,95.60
2017-11-04T02:14:04.456Z,95.40
2017-11-04T02:16:32.322Z,95.30
2017-11-04T02:19:00.063Z,95.20
2017-11-04T02:21:27.847Z,95.20
2017-11-04T02:23:55.577Z,95.00
2017-11-04T02:26:23.305Z,95.00
2017-11-04T02:28:51.047Z,95.00
2017-11-04T02:31:18.800Z,95.10
2017-11-04T02:33:46.526Z,95.30
2017-11-04T02:36:14.266Z,95.30
2017-11-04T02:38:42.026Z,95.10
2017-11-04T02:41:09.753Z,95.10
2017-11-04T02:43:37.478Z,95.30
2017-11-04T02:46:05.956Z,95.80
2017-11-04T02:48:34.597Z,95.70
2017-11-04T02:51:02.468Z,95.70
2017-11-04T02:53:30.332Z,95.70
2017-11-04T02:55:58.056Z,95.50
2017-11-04T02:58:25.769Z,95.20
2017-11-04T03:00:53.526Z,95.30
2017-11-04T03:03:22.004Z,95.40
2017-11-04T03:05:49.873Z,95.40
2017-11-04T03:08:17.740Z,95.20
2017-11-04T03:10:45.609Z,95.20
2017-11-04T03:13:14.191Z,95.20
2017-11-04T03:15:42.059Z,95.10
2017-11-04T03:18:09.805Z,95.20
2017-11-04T03:20:37.585Z,95.20
2017-11-04T03:23:05.457Z,95.10
2017-11-04T03:25:33.426Z,95.10
2017-11-04T03:28:01.165Z,95.10
2017-11-04T03:30:28.935Z,95.10
2017-11-04T03:32:56.822Z,95.20
2017-11-04T03:35:24.694Z,95.40
2017-11-04T03:37:52.558Z,95.50
2017-11-04T03:40:20.292Z,95.50
2017-11-04T03:42:48.015Z,95.60
2017-11-04T03:45:15.741Z,95.70
2017-11-04T03:47:43.463Z,95.80
2017-11-04T03:50:11.223Z,95.60
2017-11-04T03:52:39.726Z,95.60
2017-11-04T03:55:07.451Z,95.60
2017-11-04T04:00:09.059Z,95.40
2017-11-04T04:02:36.780Z,95.40
2017-11-04T04:05:04.540Z,95.60
2017-11-04T04:07:32.266Z,95.60
2017-11-04T04:10:00.012Z,95.70
2017-11-04T04:12:27.733Z,95.70
2017-11-04T04:14:55.460Z,95.70
2017-11-04T04:17:23.187Z,95.60
2017-11-04T04:19:51.832Z,95.60
2017-11-04T04:22:19.702Z,95.60
2017-11-04T04:24:47.570Z,95.50
2017-11-04T04:27:15.436Z,95.60
2017-11-04T04:29:43.165Z,95.50
2017-11-04T04:32:10.902Z,95.60
2017-11-04T04:34:39.392Z,95.70
2017-11-04T04:37:07.925Z,95.80
2017-11-04T04:39:35.725Z,95.80
2017-11-04T04:42:04.261Z,95.70
2017-11-04T04:44:32.024Z,95.70
2017-11-04T04:46:59.800Z,95.80
2017-11-04T04:49:27.566Z,96.00
2017-11-04T04:51:55.294Z,96.40
2017-11-04T04:54:23.026Z,96.50
2017-11-04T04:56:50.762Z,96.40
2017-11-04T04:59:18.503Z,96.50
2017-11-04T05:01:46.395Z,96.50
2017-11-04T05:04:14.162Z,96.50
2017-11-04T05:06:41.880Z,96.40
2017-11-04T05:09:09.654Z,96.40
2017-11-04T05:11:37.375Z,96.40
2017-11-04T05:14:05.113Z,96.40
2017-11-04T05:16:32.839Z,96.60
2017-11-04T05:19:00.563Z,97.10
2017-11-04T05:21:28.278Z,97.40
2017-11-04T05:23:56.002Z,97.80
2017-11-04T05:26:24.510Z,97.90
2017-11-04T05:28:52.295Z,97.90
2017-11-04T05:31:21.833Z,97.50
2017-11-04T05:33:51.065Z,97.70
2017-11-04T05:36:21.572Z,97.50
2017-11-04T05:38:49.338Z,97.50
2017-11-04T05:41:17.357Z,97.40
2017-11-04T05:43:45.260Z,97.10
2017-11-04T05:46:13.128Z,97.00
2017-11-04T05:48:40.860Z,96.80
2017-11-04T05:51:08.605Z,96.80
2017-11-04T05:53:37.097Z,96.80
2017-11-04T05:56:06.951Z,96.70
2017-11-04T05:58:34.820Z,96.70
2017-11-04T06:01:02.687Z,96.60
2017-11-04T06:03:30.551Z,96.60
2017-11-04T06:05:58.374Z,96.40
2017-11-04T06:08:26.123Z,96.20
2017-11-04T06:10:54.627Z,96.10
2017-11-04T06:13:22.352Z,96.10
2017-11-04T06:15:50.197Z,96.10
2017-11-04T06:18:18.065Z,96.80
2017-11-04T06:20:46.035Z,97.00
2017-11-04T06:23:13.903Z,96.80
2017-11-04T06:25:41.770Z,96.60
2017-11-04T06:28:09.637Z,96.60
2017-11-04T06:30:37.504Z,96.70
2017-11-04T06:33:05.370Z,96.70
2017-11-04T06:35:33.239Z,96.40
2017-11-04T06:38:01.106Z,96.30
2017-11-04T06:40:28.972Z,96.30
2017-11-04T06:42:56.840Z,96.20
2017-11-04T06:45:24.707Z,96.10
2017-11-04T06:47:52.576Z,96.20
2017-11-04T06:50:20.442Z,96.30
2017-11-04T06:52:48.412Z,96.30
2017-11-04T06:55:16.281Z,96.30
2017-11-04T06:57:44.150Z,96.20
2017-11-04T07:00:12.013Z,96.30
2017-11-04T07:02:39.881Z,96.30
2017-11-04T07:05:07.749Z,96.60
2017-11-04T07:07:35.620Z,97.70
2017-11-04T07:10:03.587Z,98.10
2017-11-04T07:12:31.455Z,98.20
2017-11-04T07:14:59.332Z,97.40
2017-11-04T07:17:27.188Z,97.30
2017-11-04T07:19:55.055Z,97.10
2017-11-04T07:22:22.922Z,96.90
2017-11-04T07:24:50.789Z,97.00
2017-11-04T07:27:18.658Z,96.60
2017-11-04T07:29:46.524Z,96.50
2017-11-04T07:32:14.393Z,96.40
2017-11-04T07:34:42.259Z,96.00
2017-11-04T07:37:10.126Z,96.00
2017-11-04T07:39:37.998Z,96.40
2017-11-04T07:42:05.866Z,96.50
2017-11-04T07:44:33.729Z,96.40
2017-11-04T07:47:01.501Z,96.30
2017-11-04T07:49:29.363Z,96.00
2017-11-04T07:51:57.228Z,96.10
2017-11-04T07:54:25.099Z,95.70
2017-11-04T07:56:52.964Z,95.80
2017-11-04T07:59:20.831Z,96.00
2017-11-04T08:01:48.697Z,95.90
2017-11-04T08:04:16.564Z,96.00
2017-11-04T08:06:44.575Z,95.80
2017-11-04T08:09:13.323Z,95.40
2017-11-04T08:11:41.190Z,95.30
2017-11-04T08:14:09.262Z,95.50
2017-11-04T08:16:37.129Z,95.20
2017-11-04T08:19:05.100Z,95.60
2017-11-04T08:21:32.982Z,95.10
2017-11-04T08:24:00.834Z,95.30
2017-11-04T08:26:28.701Z,95.20
2017-11-04T08:28:56.671Z,95.30
2017-11-04T08:31:24.538Z,95.30
2017-11-04T08:33:53.226Z,95.30
2017-11-04T08:36:21.095Z,95.40
2017-11-04T08:38:48.962Z,95.60
2017-11-04T08:41:16.826Z,95.40
2017-11-04T08:43:44.694Z,95.60
2017-11-04T08:46:12.561Z,95.60
2017-11-04T08:48:40.429Z,95.60
2017-11-04T08:51:08.297Z,95.60
2017-11-04T08:53:36.096Z,95.60
2017-11-04T08:56:04.748Z,95.40
2017-11-04T08:58:32.616Z,95.30
2017-11-04T09:01:00.482Z,95.20
2017-11-04T09:03:28.349Z,95.50
2017-11-04T09:05:56.217Z,95.40
2017-11-04T09:08:24.084Z,95.30
2017-11-04T09:10:51.951Z,95.50
2017-11-04T09:13:19.818Z,95.50
2017-11-04T09:15:47.900Z,95.70
2017-11-04T09:18:15.759Z,95.90
2017-11-04T09:20:44.445Z,96.00
2017-11-04T09:23:12.311Z,96.30
2017-11-04T09:25:40.178Z,96.30
2017-11-04T09:28:08.046Z,96.60
2017-11-04T09:30:35.914Z,96.60
2017-11-04T09:33:03.783Z,96.80
2017-11-04T09:35:31.648Z,97.00
2017-11-04T09:37:59.517Z,97.00
2017-11-04T09:40:27.384Z,97.10
2017-11-04T09:42:55.250Z,96.80
2017-11-04T09:45:23.119Z,97.10
2017-11-04T09:47:51.026Z,96.90
2017-11-04T09:50:19.672Z,97.60
2017-11-04T09:52:47.538Z,97.60
2017-11-04T09:55:15.408Z,96.60
2017-11-04T09:57:43.273Z,96.70
2017-11-04T10:00:11.141Z,96.10
2017-11-04T10:02:39.009Z,96.30
2017-11-04T10:05:06.876Z,96.00
2017-11-04T10:07:34.742Z,95.90
2017-11-04T10:10:02.610Z,96.10
2017-11-04T10:12:30.478Z,96.30
2017-11-04T10:14:58.352Z,96.50
2017-11-04T10:17:27.031Z,96.90
2017-11-04T10:19:54.899Z,96.50
2017-11-04T10:22:22.766Z,96.80
2017-11-04T10:24:50.633Z,96.90
2017-11-04T10:27:18.500Z,96.60
2017-11-04T10:29:46.287Z,96.60
2017-11-04T10:32:14.162Z,96.60
2017-11-04T10:34:42.820Z,96.40
2017-11-04T10:37:10.686Z,96.20
2017-11-04T10:39:38.553Z,96.20
2017-11-04T10:42:06.523Z,96.20
2017-11-04T10:44:34.390Z,96.20
2017-11-04T10:47:02.258Z,96.40
2017-11-04T10:49:30.126Z,96.10
2017-11-04T10:51:58.094Z,95.90
2017-11-04T10:54:25.968Z,95.20
2017-11-04T10:56:53.834Z,95.90
2017-11-04T10:59:21.699Z,95.60
2017-11-04T11:01:49.698Z,95.50
2017-11-04T11:04:18.358Z,95.80
2017-11-04T11:06:46.225Z,95.80
2017-11-04T11:09:14.092Z,95.30
2017-11-04T11:11:42.263Z,95.60
2017-11-04T11:14:10.130Z,95.50
2017-11-04T11:16:37.996Z,95.40
2017-11-04T11:19:05.865Z,95.50
2017-11-04T11:21:33.731Z,94.60
2017-11-04T11:24:02.316Z,94.30
2017-11-04T11:26:30.186Z,94.30
2017-11-04T11:28:58.051Z,93.70
2017-11-04T11:31:25.917Z,92.80
2017-11-04T11:33:53.785Z,91.40
2017-11-04T11:36:21.653Z,90.90
2017-11-04T11:38:49.521Z,90.90
2017-11-04T11:41:17.386Z,91.40
2017-11-04T11:43:45.254Z,91.30
2017-11-04T11:46:13.123Z,90.70
2017-11-04T11:48:40.988Z,90.90
2017-11-04T11:51:08.856Z,91.80
2017-11-04T11:53:36.724Z,92.10
2017-11-04T11:56:04.591Z,92.20
2017-11-04T11:58:32.478Z,92.50
2017-11-04T12:01:01.043Z,92.70
2017-11-04T12:03:28.909Z,92.70
2017-11-04T12:05:56.776Z,93.30
2017-11-04T12:08:24.644Z,92.60
2017-11-04T12:10:52.512Z,92.60
2017-11-04T12:13:20.378Z,91.50
2017-11-04T12:15:48.247Z,90.30
2017-11-04T12:18:16.113Z,87.10
2017-11-04T12:20:43.980Z,87.20
2017-11-04T12:23:11.847Z,86.40
2017-11-04T12:25:39.715Z,84.80
2017-11-04T12:28:07.583Z,84.30
2017-11-04T12:30:35.450Z,84.00
2017-11-04T12:33:03.318Z,84.00
2017-11-04T12:35:31.184Z,82.20
2017-11-04T12:37:59.052Z,80.30
2017-11-04T12:40:26.919Z,79.00
2017-11-04T12:42:54.786Z,78.10
2017-11-04T12:45:22.654Z,79.10
2017-11-04T12:47:50.521Z,79.40
2017-11-04T12:50:18.400Z,79.60
2017-11-04T12:52:46.248Z,79.50
2017-11-04T12:55:14.123Z,80.20
2017-11-04T12:57:41.991Z,79.90
2017-11-04T13:00:09.857Z,80.40
2017-11-04T13:02:37.725Z,78.30
2017-11-04T13:05:05.592Z,77.90
2017-11-04T13:07:33.461Z,78.30
2017-11-04T13:10:01.327Z,80.10
2017-11-04T13:12:29.194Z,81.20
2017-11-04T13:14:57.061Z,82.40
2017-11-04T13:17:24.929Z,83.40
2017-11-04T13:19:52.796Z,84.20
2017-11-04T13:22:20.664Z,85.00
2017-11-04T13:24:48.530Z,85.90
2017-11-04T13:27:16.398Z,86.20
2017-11-04T13:29:44.264Z,87.30
2017-11-04T13:32:12.133Z,87.20
2017-11-04T13:34:39.999Z,88.00
2017-11-04T13:37:07.867Z,87.90
2017-11-04T13:39:35.735Z,88.20
2017-11-04T13:42:03.605Z,88.70
2017-11-04T13:44:31.469Z,88.40
2017-11-04T13:46:59.336Z,88.30
2017-11-04T13:49:27.211Z,87.70
2017-11-04T13:51:55.077Z,87.70
2017-11-04T13:54:23.040Z,87.10
2017-11-04T13:56:50.930Z,87.20
2017-11-04T13:59:18.775Z,87.20
2017-11-04T14:01:46.642Z,85.70
2017-11-04T14:04:14.509Z,84.90
2017-11-04T14:06:42.276Z,84.80
2017-11-04T14:09:10.142Z,83.80
2017-11-04T14:11:39.699Z,85.00
2017-11-04T14:14:08.550Z,85.10
2017-11-04T14:16:37.331Z,86.10
2017-11-04T14:19:12.600Z,86.10
2017-11-04T14:21:44.892Z,85.90
2017-11-04T14:24:14.234Z,86.60
2017-11-04T14:26:43.677Z,87.00
2017-11-04T14:29:12.538Z,88.90
2017-11-04T14:31:40.817Z,88.90
2017-11-04T14:34:08.784Z,89.80
2017-11-04T14:36:36.650Z,90.10
2017-11-04T14:39:04.519Z,90.20
2017-11-04T14:41:32.288Z,90.30
2017-11-04T14:44:00.151Z,90.40
2017-11-04T14:46:28.019Z,90.60
2017-11-04T14:48:55.885Z,90.50
2017-11-04T14:51:23.752Z,90.70
2017-11-04T14:53:51.619Z,90.40
2017-11-04T14:56:19.488Z,90.30
2017-11-04T14:58:47.354Z,89.40
2017-11-04T15:01:15.222Z,89.80
2017-11-04T15:03:43.089Z,89.60
2017-11-04T15:06:10.956Z,90.10
2017-11-04T15:08:38.830Z,90.40
2017-11-04T15:11:06.696Z,90.70
2017-11-04T15:13:35.377Z,91.00
2017-11-04T15:16:03.245Z,91.00
2017-11-04T15:18:31.112Z,91.10
2017-11-04T15:20:58.980Z,91.00
2017-11-04T15:23:26.846Z,91.40
2017-11-04T15:25:54.714Z,91.30
2017-11-04T15:28:22.581Z,91.30
2017-11-04T15:30:50.348Z,91.10
2017-11-04T15:33:18.213Z,91.00
2017-11-04T15:35:46.081Z,91.10
2017-11-04T15:38:13.948Z,91.00
2017-11-04T15:40:41.819Z,91.20
2017-11-04T15:43:09.683Z,91.30
2017-11-04T15:45:37.549Z,91.60
2017-11-04T15:48:05.417Z,91.40
2017-11-04T15:50:33.284Z,91.50
2017-11-04T15:53:01.152Z,91.70
2017-11-04T15:55:29.020Z,92.00
2017-11-04T15:57:56.886Z,92.20
2017-11-04T16:00:24.754Z,92.20
2017-11-04T16:02:52.716Z,92.10
2017-11-04T16:05:25.035Z,92.20
2017-11-04T16:07:58.391Z,92.00
2017-11-04T16:10:29.695Z,92.00
2017-11-04T16:13:02.973Z,92.00
2017-11-04T16:15:32.014Z,91.90
2017-11-04T16:18:00.408Z,92.40
2017-11-04T16:20:33.747Z,93.00
2017-11-04T16:23:06.979Z,93.70
2017-11-04T16:25:41.498Z,93.60
2017-11-04T16:28:15.789Z,94.40
2017-11-04T16:30:43.706Z,94.60
2017-11-04T16:33:11.572Z,94.50
2017-11-04T16:35:39.311Z,94.30
2017-11-04T16:38:07.063Z,94.90
2017-11-04T16:40:35.078Z,95.80
2017-11-04T16:43:02.808Z,96.10
2017-11-04T16:45:30.534Z,96.10
2017-11-04T16:47:59.186Z,96.10
2017-11-04T16:50:27.053Z,96.10
2017-11-04T16:52:54.921Z,95.60
2017-11-04T16:55:23.471Z,94.90
2017-11-04T16:57:51.199Z,94.90
2017-11-04T17:00:19.715Z,94.40
2017-11-04T17:02:47.438Z,94.40
2017-11-04T17:05:15.176Z,94.00
2017-11-04T17:07:47.017Z,94.10
2017-11-04T17:10:15.829Z,96.30
2017-11-04T17:12:43.697Z,96.30
2017-11-04T17:15:11.564Z,96.30
2017-11-04T17:17:40.526Z,95.80
2017-11-04T17:20:08.426Z,95.50
2017-11-04T17:22:36.600Z,95.20
2017-11-04T17:25:04.467Z,95.10
2017-11-04T17:27:32.336Z,95.00
2017-11-04T17:30:00.203Z,96.00
2017-11-04T17:32:28.075Z,96.00
2017-11-04T17:34:55.940Z,95.50
2017-11-04T17:37:23.805Z,95.40
2017-11-04T17:39:51.674Z,95.30
2017-11-04T17:42:19.543Z,95.10
2017-11-04T17:44:47.270Z,94.80
2017-11-04T17:47:15.006Z,94.90
2017-11-04T17:49:43.515Z,95.00
2017-11-04T17:52:11.246Z,95.00
2017-11-04T17:54:39.900Z,94.70
2017-11-04T17:57:07.766Z,94.70
2017-11-04T17:59:35.633Z,94.80
2017-11-04T18:02:03.500Z,95.00
2017-11-04T18:04:31.368Z,95.20
2017-11-04T18:06:59.338Z,95.30
2017-11-04T18:09:27.205Z,95.30
2017-11-04T18:11:55.072Z,95.10
2017-11-04T18:14:22.940Z,95.10
2017-11-04T18:16:50.808Z,95.20
2017-11-04T18:19:18.675Z,95.00
2017-11-04T18:21:46.541Z,95.00
2017-11-04T18:24:14.424Z,94.50
2017-11-04T18:26:42.276Z,93.60
2017-11-04T18:29:10.776Z,94.80
2017-11-04T18:31:38.559Z,94.80
2017-11-04T18:34:07.050Z,96.20
2017-11-04T18:36:35.563Z,96.60
2017-11-04T18:39:03.611Z,96.60
2017-11-04T18:41:31.346Z,96.30
2017-11-04T18:43:59.100Z,95.90
2017-11-04T18:46:26.957Z,95.70
2017-11-04T18:48:54.823Z,95.70
2017-11-04T18:51:22.588Z,96.10
2017-11-04T18:53:50.456Z,95.90
2017-11-04T18:56:18.322Z,97.10
2017-11-04T18:58:46.189Z,98.10
2017-11-04T19:01:14.057Z,99.10
2017-11-04T19:03:41.783Z,99.30
2017-11-04T19:06:09.526Z,98.30
2017-11-04T19:08:38.170Z,98.30
2017-11-04T19:11:06.038Z,98.30
2017-11-04T19:13:33.819Z,97.30
2017-11-04T19:16:01.572Z,96.80
2017-11-04T19:18:29.299Z,96.60
2017-11-04T19:20:57.022Z,95.50
2017-11-04T19:23:24.751Z,95.10
2017-11-04T19:25:52.740Z,95.00
2017-11-04T19:28:20.478Z,95.30
2017-11-04T19:30:48.246Z,97.00
2017-11-04T19:33:15.966Z,97.70
2017-11-04T19:35:44.460Z,99.10
2017-11-04T19:38:12.271Z,99.10
2017-11-04T19:40:40.145Z,98.30
2017-11-04T19:43:07.870Z,97.70
2017-11-04T19:45:35.593Z,97.60
2017-11-04T19:48:04.092Z,97.00
2017-11-04T19:50:32.596Z,96.70
2017-11-04T19:53:00.335Z,96.70
2017-11-04T19:55:28.818Z,96.50
2017-11-04T19:57:57.462Z,96.70
2017-11-04T20:00:25.199Z,96.70
2017-11-04T20:02:53.096Z,96.60
2017-11-04T20:05:20.962Z,96.50
2017-11-04T20:07:48.829Z,96.30
2017-11-04T20:10:16.696Z,95.90
2017-11-04T20:12:44.564Z,96.00
2017-11-04T20:15:12.431Z,96.40
2017-11-04T20:17:40.300Z,96.40
2017-11-04T20:20:08.165Z,96.50
2017-11-04T20:22:36.034Z,97.00
2017-11-04T20:25:03.901Z,97.00
2017-11-04T20:27:31.769Z,97.00
2017-11-04T20:29:59.635Z,97.30
2017-11-04T20:32:27.507Z,97.70
2017-11-04T20:34:55.231Z,97.50
2017-11-04T20:37:22.949Z,97.80
2017-11-04T20:39:50.797Z,97.50
2017-11-04T20:42:18.664Z,97.20
2017-11-04T20:44:46.433Z,97.00
2017-11-04T20:47:14.294Z,97.00
2017-11-04T20:49:42.165Z,96.70
2017-11-04T20:52:10.031Z,96.40
2017-11-04T20:54:37.907Z,96.40
2017-11-04T20:57:06.413Z,97.40
2017-11-04T20:59:34.907Z,97.90
2017-11-04T21:02:03.392Z,97.40
2017-11-04T21:04:31.118Z,97.40
2017-11-04T21:06:58.834Z,96.90
2017-11-04T21:09:26.562Z,96.50
2017-11-04T21:11:54.407Z,96.60
2017-11-04T21:14:23.090Z,96.50
2017-11-04T21:16:50.958Z,96.40
2017-11-04T21:19:18.710Z,96.10
2017-11-04T21:21:46.589Z,96.00
2017-11-04T21:24:14.458Z,95.90
2017-11-04T21:26:42.324Z,95.80
2017-11-04T21:29:10.192Z,95.80
2017-11-04T21:31:38.058Z,95.80
2017-11-04T21:34:05.927Z,95.90
2017-11-04T21:36:33.723Z,95.90
2017-11-04T21:39:02.388Z,95.90
2017-11-04T21:41:30.249Z,95.90
2017-11-04T21:43:58.114Z,95.70
2017-11-04T21:46:25.981Z,95.70
2017-11-04T21:48:53.865Z,96.60
2017-11-04T21:51:21.596Z,97.90
2017-11-04T21:53:49.326Z,97.90
2017-11-04T21:56:17.961Z,97.80
2017-11-04T21:58:45.827Z,97.80
2017-11-04T22:01:13.695Z,98.70
2017-11-04T22:03:41.564Z,99.30
2017-11-04T22:06:09.432Z,98.40
2017-11-04T22:08:37.316Z,97.60
2017-11-04T22:11:05.164Z,97.20
2017-11-04T22:13:33.032Z,96.90
2017-11-04T22:16:00.899Z,96.60
2017-11-04T22:18:28.618Z,96.60
2017-11-04T22:20:56.327Z,97.30
2017-11-04T22:23:24.194Z,97.20
2017-11-04T22:25:52.061Z,97.70
2017-11-04T22:28:19.929Z,97.50
2017-11-04T22:30:47.796Z,96.90
2017-11-04T22:33:15.664Z,97.10
2017-11-04T22:35:43.530Z,96.70
2017-11-04T22:38:11.397Z,96.00
2017-11-04T22:40:39.199Z,95.70
2017-11-04T22:43:07.850Z,95.90
2017-11-04T22:45:35.716Z,95.90
2017-11-04T22:48:03.586Z,95.90
2017-11-04T22:50:31.455Z,95.90
2017-11-04T22:52:59.319Z,95.80
2017-11-04T22:55:27.186Z,95.80
2017-11-04T22:57:55.055Z,95.90
2017-11-04T23:00:22.920Z,96.60
2017-11-04T23:02:50.787Z,98.60
2017-11-04T23:05:18.593Z,98.60
2017-11-04T23:07:47.082Z,97.50
2017-11-04T23:10:15.578Z,97.20
2017-11-04T23:12:43.382Z,97.10
2017-11-04T23:15:12.852Z,96.40
2017-11-04T23:17:40.584Z,96.40
2017-11-04T23:20:09.238Z,96.20
2017-11-04T23:22:36.976Z,96.20
2017-11-04T23:25:04.789Z,96.10
2017-11-04T23:27:32.518Z,96.00
2017-11-04T23:30:00.250Z,97.00
2017-11-04T23:32:27.967Z,96.90
2017-11-04T23:34:55.694Z,97.80
2017-11-04T23:37:23.593Z,98.00
2017-11-04T23:39:51.460Z,97.50
2017-11-04T23:42:19.326Z,97.20
2017-11-04T23:44:47.195Z,96.70
2017-11-04T23:47:15.062Z,96.20
2017-11-04T23:49:42.931Z,95.90
2017-11-04T23:52:10.666Z,95.80
2017-11-04T23:54:38.461Z,95.90
2017-11-04T23:57:06.325Z,96.00
2017-11-04T23:59:34.196Z,95.90
